Time;durP1;ratioP1;P1;durP2;ratioP2;P2;SDS_P1;SDS_P2;PMS_P1;PMS_P2;Temp;Humidity;BMP_temperature;BMP_pressure;BME280_temperature;BME280_humidity;BME280_pressure;Samples;Min_cycle;Max_cycle;Signal;HPM_P1;HPM_P2
2023/05/29 00:00:20;;;;;;;21.95;3.05;;;9.60;99.90;;;;;;4984603;28;20069;-65
2023/05/29 00:02:47;;;;;;;14.18;2.75;;;9.60;99.90;;;;;;4965451;28;20054;-65
2023/05/29 00:05:14;;;;;;;23.40;3.30;;;9.60;99.90;;;;;;4965196;28;20057;-65
2023/05/29 00:07:40;;;;;;;16.95;2.78;;;9.60;99.90;;;;;;4966912;28;20853;-65
2023/05/29 00:10:08;;;;;;;15.82;3.08;;;9.60;99.90;;;;;;4973544;28;20194;-66
2023/05/29 00:12:35;;;;;;;20.95;4.35;;;9.60;99.90;;;;;;4967990;28;20039;-65
2023/05/29 00:15:03;;;;;;;25.13;5.13;;;9.60;99.90;;;;;;4969652;28;20054;-64
2023/05/29 00:17:31;;;;;;;22.45;3.47;;;9.60;99.90;;;;;;4969894;28;20050;-65
2023/05/29 00:19:58;;;;;;;21.38;2.83;;;9.60;99.90;;;;;;4971019;28;20084;-65
2023/05/29 00:22:25;;;;;;;20.77;3.55;;;9.60;99.90;;;;;;4970175;28;20058;-65
2023/05/29 00:24:52;;;;;;;13.35;2.83;;;9.70;99.90;;;;;;4999805;28;20502;-65
2023/05/29 00:27:18;;;;;;;17.85;2.75;;;9.60;99.90;;;;;;4969788;28;20055;-65
2023/05/29 00:29:45;;;;;;;25.08;3.85;;;9.60;99.90;;;;;;4971871;28;20050;-65
2023/05/29 00:32:10;;;;;;;19.85;3.28;;;9.60;99.90;;;;;;4975474;28;20046;-64
2023/05/29 00:34:36;;;;;;;21.42;3.30;;;9.60;99.90;;;;;;4967574;28;20058;-65
2023/05/29 00:37:02;;;;;;;17.92;2.90;;;9.70;99.90;;;;;;4967442;28;20047;-64
2023/05/29 00:39:29;;;;;;;21.95;3.70;;;9.70;99.90;;;;;;4969963;28;20043;-65
2023/05/29 00:41:56;;;;;;;21.17;3.22;;;9.70;99.90;;;;;;4980119;28;20054;-64
2023/05/29 00:44:22;;;;;;;29.13;3.35;;;9.70;99.90;;;;;;4969540;28;20047;-65
2023/05/29 00:46:49;;;;;;;19.33;3.65;;;9.70;99.90;;;;;;4968310;28;20517;-64
2023/05/29 00:49:16;;;;;;;21.35;3.22;;;9.80;99.90;;;;;;4970026;28;20105;-64
2023/05/29 00:51:43;;;;;;;15.13;3.33;;;9.80;99.90;;;;;;4999964;28;20094;-64
2023/05/29 00:54:12;;;;;;;19.40;3.25;;;9.80;99.90;;;;;;4999559;28;20078;-64
2023/05/29 00:56:44;;;;;;;20.98;3.42;;;9.80;99.90;;;;;;4974032;28;20046;-64
2023/05/29 00:59:15;;;;;;;20.05;4.18;;;9.80;99.90;;;;;;4967022;28;20461;-64
2023/05/29 01:01:42;;;;;;;24.13;3.97;;;9.80;99.90;;;;;;4969366;28;20055;-64
2023/05/29 01:04:12;;;;;;;19.40;4.57;;;9.90;99.90;;;;;;4967861;28;20109;-64
2023/05/29 01:06:39;;;;;;;;;;;9.90;99.90;;;;;;4970231;28;20050;-64
2023/05/29 01:09:05;;;;;;;15.50;2.70;;;9.90;99.90;;;;;;4969071;28;19926;-64
2023/05/29 01:12:00;;;;;;;18.98;4.05;;;9.90;99.90;;;;;;4968808;28;20054;-64
2023/05/29 01:14:43;;;;;;;25.42;3.47;;;9.80;99.90;;;;;;4967661;28;20039;-65
2023/05/29 01:17:20;;;;;;;27.80;4.47;;;9.80;99.90;;;;;;4969519;28;20109;-65
2023/05/29 01:19:57;;;;;;;19.50;3.10;;;9.80;99.90;;;;;;4937751;28;20053;-65
2023/05/29 01:22:32;;;;;;;28.67;4.13;;;9.80;99.90;;;;;;4969087;28;20063;-65
2023/05/29 01:25:16;;;;;;;17.05;3.42;;;9.80;99.90;;;;;;4967717;28;20043;-65
2023/05/29 01:27:44;;;;;;;20.25;3.50;;;9.80;99.90;;;;;;4969143;28;20225;-65
2023/05/29 01:30:12;;;;;;;21.98;3.72;;;9.80;99.90;;;;;;4967632;28;20054;-65
2023/05/29 01:32:39;;;;;;;23.20;3.05;;;9.80;99.90;;;;;;4968472;28;20118;-65
2023/05/29 01:35:05;;;;;;;24.10;3.67;;;9.80;99.90;;;;;;4967743;28;20038;-65
2023/05/29 01:37:31;;;;;;;20.90;3.30;;;9.80;99.90;;;;;;4999106;28;20057;-65
2023/05/29 01:39:57;;;;;;;24.90;3.28;;;9.70;99.90;;;;;;4978802;28;20133;-64
2023/05/29 01:42:23;;;;;;;17.48;2.63;;;9.70;99.90;;;;;;4966393;28;20057;-64
2023/05/29 01:44:49;;;;;;;20.58;3.05;;;9.70;99.90;;;;;;4968595;28;20054;-64
2023/05/29 01:47:16;;;;;;;15.07;3.60;;;9.70;99.90;;;;;;4966110;28;20259;-64
2023/05/29 01:49:43;;;;;;;22.17;3.35;;;9.70;99.90;;;;;;4978363;28;20046;-64
2023/05/29 01:52:10;;;;;;;23.63;4.55;;;9.70;99.90;;;;;;4967337;28;20109;-64
2023/05/29 01:54:36;;;;;;;27.73;3.90;;;9.70;99.90;;;;;;4966407;28;20141;-64
2023/05/29 01:57:02;;;;;;;14.00;2.20;;;9.70;99.90;;;;;;4967859;28;20046;-64
2023/05/29 01:59:30;;;;;;;25.77;3.25;;;9.70;99.60;;;;;;4998424;28;20054;-64
2023/05/29 02:01:55;;;;;;;20.90;3.72;;;9.70;99.10;;;;;;4968132;28;20086;-64
2023/05/29 02:04:21;;;;;;;18.10;2.90;;;9.70;99.90;;;;;;4967314;28;20512;-64
2023/05/29 02:06:47;;;;;;;16.17;2.95;;;9.70;99.80;;;;;;4967761;28;20058;-64
2023/05/29 02:09:13;;;;;;;15.70;2.67;;;9.70;99.40;;;;;;4998565;28;20031;-64
2023/05/29 02:11:44;;;;;;;22.27;2.80;;;9.70;99.20;;;;;;4977782;28;20055;-65
2023/05/29 02:14:10;;;;;;;22.73;2.88;;;9.70;98.90;;;;;;4967418;28;20050;-64
2023/05/29 02:16:36;;;;;;;19.08;3.05;;;9.70;98.90;;;;;;4998897;28;20057;-65
2023/05/29 02:19:02;;;;;;;13.60;2.58;;;9.70;97.70;;;;;;4967876;28;20401;-65
2023/05/29 02:21:27;;;;;;;15.30;2.95;;;9.70;97.50;;;;;;4966819;28;20133;-64
2023/05/29 02:23:53;;;;;;;25.23;3.58;;;9.70;97.50;;;;;;4967661;28;20054;-64
2023/05/29 02:26:19;;;;;;;15.40;3.05;;;9.70;96.70;;;;;;4966376;28;20091;-64
2023/05/29 02:28:45;;;;;;;24.40;4.80;;;9.70;97.70;;;;;;4968807;28;20142;-65
2023/05/29 02:31:11;;;;;;;17.50;2.80;;;9.70;98.00;;;;;;4964149;28;20113;-64
2023/05/29 02:33:36;;;;;;;18.85;2.88;;;9.70;99.00;;;;;;4967462;28;20114;-65
2023/05/29 02:36:02;;;;;;;11.93;2.50;;;9.70;99.80;;;;;;4967007;28;20470;-64
2023/05/29 02:38:28;;;;;;;24.52;3.45;;;9.70;99.50;;;;;;4970296;28;20054;-64
2023/05/29 02:40:54;;;;;;;19.80;3.03;;;9.60;99.90;;;;;;4974981;28;20046;-65
2023/05/29 02:43:22;;;;;;;18.95;3.03;;;9.70;98.50;;;;;;4966324;28;20084;-64
2023/05/29 02:45:48;;;;;;;16.55;3.22;;;9.60;98.80;;;;;;4967537;28;20055;-65
2023/05/29 02:48:14;;;;;;;14.50;2.65;;;9.60;99.40;;;;;;4966235;28;20054;-64
2023/05/29 02:50:39;;;;;;;17.08;2.92;;;9.60;98.70;;;;;;4967365;28;20067;-64
2023/05/29 02:53:05;;;;;;;14.85;2.88;;;9.60;98.30;;;;;;4966396;28;20042;-64
2023/05/29 02:55:32;;;;;;;17.30;2.67;;;9.70;98.60;;;;;;4966534;28;20058;-64
2023/05/29 02:57:59;;;;;;;18.67;3.33;;;9.70;98.00;;;;;;4967454;28;20058;-63
2023/05/29 03:00:25;;;;;;;13.75;2.80;;;9.70;97.80;;;;;;4967361;28;20050;-64
2023/05/29 03:02:55;;;;;;;17.13;3.03;;;9.70;97.90;;;;;;4967233;28;20054;-64
2023/05/29 03:05:21;;;;;;;17.45;2.97;;;9.70;98.50;;;;;;4997590;28;20294;-64
2023/05/29 03:07:46;;;;;;;21.77;3.67;;;9.70;98.90;;;;;;4965405;28;20051;-64
2023/05/29 03:10:12;;;;;;;21.63;4.47;;;9.80;97.00;;;;;;4973393;28;20034;-66
2023/05/29 03:12:39;;;;;;;24.25;3.78;;;9.80;97.40;;;;;;4969032;28;20053;-64
2023/05/29 03:15:05;;;;;;;27.58;3.45;;;9.80;97.90;;;;;;4967238;28;20046;-64
2023/05/29 03:17:31;;;;;;;18.10;3.00;;;9.90;98.10;;;;;;4966084;28;20055;-64
2023/05/29 03:19:57;;;;;;;18.38;2.03;;;9.90;96.90;;;;;;4969030;28;20554;-64
2023/05/29 03:22:23;;;;;;;17.30;2.70;;;9.90;97.10;;;;;;4971648;28;20086;-64
2023/05/29 03:24:49;;;;;;;12.43;2.75;;;9.90;96.50;;;;;;4966559;28;20078;-65
2023/05/29 03:27:15;;;;;;;24.05;3.10;;;9.90;94.10;;;;;;4964681;28;20047;-64
2023/05/29 03:29:40;;;;;;;14.50;3.03;;;10.00;95.80;;;;;;4966917;28;20042;-65
2023/05/29 03:32:07;;;;;;;17.00;2.97;;;10.00;95.80;;;;;;4996953;28;20065;-64
2023/05/29 03:34:34;;;;;;;17.30;2.85;;;10.00;95.20;;;;;;4962467;28;20051;-65
2023/05/29 03:37:00;;;;;;;18.77;3.00;;;10.00;93.80;;;;;;4967275;28;20122;-65
2023/05/29 03:39:26;;;;;;;12.73;2.70;;;10.00;93.70;;;;;;4965524;28;20461;-65
2023/05/29 03:41:51;;;;;;;13.35;2.65;;;10.10;94.80;;;;;;4968180;28;20046;-64
2023/05/29 03:44:17;;;;;;;20.60;2.83;;;10.10;93.60;;;;;;4994960;28;20051;-65
2023/05/29 03:46:43;;;;;;;20.08;3.10;;;10.10;94.70;;;;;;4970574;28;20481;-64
2023/05/29 03:49:08;;;;;;;19.80;2.95;;;10.10;93.80;;;;;;4970187;28;20074;-64
2023/05/29 03:51:35;;;;;;;17.70;3.50;;;10.10;93.60;;;;;;4970104;28;20053;-64
2023/05/29 03:54:01;;;;;;;11.85;2.47;;;10.10;94.10;;;;;;4971732;28;20051;-64
2023/05/29 03:56:26;;;;;;;19.05;3.15;;;10.10;93.50;;;;;;4967849;28;20055;-65
2023/05/29 03:58:53;;;;;;;15.88;3.22;;;10.10;94.30;;;;;;4971949;28;20140;-65
2023/05/29 04:01:19;;;;;;;22.67;3.53;;;10.10;96.00;;;;;;4968085;28;20047;-65
2023/05/29 04:03:44;;;;;;;25.02;3.25;;;10.10;94.90;;;;;;4969204;28;20046;-65
2023/05/29 04:06:11;;;;;;;20.45;3.17;;;10.10;93.80;;;;;;4951968;28;20051;-65
2023/05/29 04:08:37;;;;;;;22.63;3.95;;;10.20;94.70;;;;;;4969517;28;20117;-65
2023/05/29 04:11:03;;;;;;;17.10;3.10;;;10.20;92.10;;;;;;4969973;28;20440;-65
2023/05/29 04:13:29;;;;;;;13.23;2.45;;;10.10;92.40;;;;;;4970529;28;20082;-64
2023/05/29 04:15:55;;;;;;;14.95;3.22;;;10.20;92.80;;;;;;4970378;28;20050;-65
2023/05/29 04:18:21;;;;;;;16.88;2.92;;;10.20;94.60;;;;;;4967657;28;20047;-64
2023/05/29 04:20:47;;;;;;;13.30;2.72;;;10.20;93.10;;;;;;4970007;28;20402;-64
2023/05/29 04:23:14;;;;;;;18.77;3.33;;;10.20;92.20;;;;;;4969683;28;20073;-65
2023/05/29 04:25:40;;;;;;;16.88;3.60;;;10.20;92.90;;;;;;4976074;28;20046;-64
2023/05/29 04:28:05;;;;;;;16.73;3.17;;;10.20;92.30;;;;;;4969199;28;20497;-64
2023/05/29 04:30:33;;;;;;;24.38;3.42;;;10.20;91.70;;;;;;4969412;28;20154;-65
2023/05/29 04:32:59;;;;;;;17.08;3.40;;;10.20;91.50;;;;;;5000544;28;20039;-64
2023/05/29 04:35:28;;;;;;;18.13;2.85;;;10.20;90.40;;;;;;4972048;28;20475;-65
2023/05/29 04:37:56;;;;;;;13.70;2.53;;;10.20;90.60;;;;;;4969762;28;20055;-65
2023/05/29 04:40:22;;;;;;;14.40;2.45;;;10.20;91.70;;;;;;4968471;28;20042;-65
2023/05/29 04:42:49;;;;;;;13.40;2.72;;;10.20;92.80;;;;;;5000909;28;20093;-65
2023/05/29 04:45:16;;;;;;;14.90;3.30;;;10.20;91.00;;;;;;4970350;28;20047;-65
2023/05/29 04:47:45;;;;;;;18.02;3.22;;;10.30;91.60;;;;;;4972724;28;20034;-64
2023/05/29 04:50:11;;;;;;;13.07;2.63;;;10.30;92.50;;;;;;4970443;28;20049;-64
2023/05/29 04:52:38;;;;;;;18.45;3.33;;;10.30;90.30;;;;;;4967917;28;20482;-63
2023/05/29 04:55:04;;;;;;;20.75;3.92;;;10.30;87.60;;;;;;4968694;28;20344;-64
2023/05/29 04:57:30;;;;;;;18.58;2.63;;;10.30;85.30;;;;;;4983534;28;20058;-64
2023/05/29 04:59:56;;;;;;;14.52;3.63;;;10.40;84.90;;;;;;4967924;28;20063;-64
2023/05/29 05:02:23;;;;;;;24.90;4.35;;;10.40;84.20;;;;;;4971664;28;20570;-65
2023/05/29 05:04:50;;;;;;;16.55;3.35;;;10.50;88.10;;;;;;4963482;28;20043;-65
2023/05/29 05:07:16;;;;;;;12.77;3.00;;;10.50;83.80;;;;;;4965027;28;20050;-65
2023/05/29 05:09:42;;;;;;;17.13;3.47;;;10.50;83.30;;;;;;4957701;28;20054;-65
2023/05/29 05:12:08;;;;;;;21.58;4.55;;;10.60;84.50;;;;;;4969459;28;20048;-65
2023/05/29 05:14:34;;;;;;;34.13;3.70;;;10.50;81.50;;;;;;4982745;28;20121;-64
2023/05/29 05:17:00;;;;;;;17.35;3.70;;;10.50;85.80;;;;;;4967854;28;20053;-65
2023/05/29 05:19:26;;;;;;;17.88;3.22;;;10.60;83.10;;;;;;4972763;28;20039;-64
2023/05/29 05:21:52;;;;;;;25.23;4.35;;;10.50;83.20;;;;;;4960748;28;20042;-64
2023/05/29 05:24:17;;;;;;;22.67;3.80;;;10.60;87.80;;;;;;4999035;28;20502;-65
2023/05/29 05:26:43;;;;;;;24.42;3.35;;;10.60;89.50;;;;;;4968681;28;20085;-65
2023/05/29 05:29:09;;;;;;;15.93;3.28;;;10.70;87.00;;;;;;4967468;28;20433;-64
2023/05/29 05:31:34;;;;;;;13.07;3.00;;;10.70;86.50;;;;;;4982476;28;20090;-65
2023/05/29 05:34:00;;;;;;;28.10;4.15;;;10.70;80.70;;;;;;4967179;28;20051;-64
2023/05/29 05:36:26;;;;;;;18.70;3.13;;;10.80;81.90;;;;;;4967805;28;20049;-65
2023/05/29 05:38:58;;;;;;;16.88;3.35;;;10.80;83.80;;;;;;4974183;28;20404;-64
2023/05/29 05:41:25;;;;;;;22.52;3.63;;;10.80;80.90;;;;;;4970982;28;20057;-64
2023/05/29 05:43:50;;;;;;;29.33;4.10;;;10.90;76.90;;;;;;4963642;28;20058;-64
2023/05/29 05:46:17;;;;;;;17.70;2.95;;;10.90;78.60;;;;;;4968274;28;20405;-64
2023/05/29 05:48:44;;;;;;;18.15;3.38;;;11.00;78.60;;;;;;4982150;28;20043;-63
2023/05/29 05:51:11;;;;;;;23.85;3.35;;;11.00;76.80;;;;;;4968903;28;20046;-64
2023/05/29 05:53:37;;;;;;;22.15;3.88;;;11.00;75.10;;;;;;4966337;28;20063;-64
2023/05/29 05:56:03;;;;;;;30.52;4.40;;;11.00;74.60;;;;;;4966829;28;20066;-65
2023/05/29 05:58:29;;;;;;;24.48;4.03;;;11.10;74.10;;;;;;4982356;28;20039;-64
2023/05/29 06:00:57;;;;;;;15.10;3.28;;;11.20;83.10;;;;;;4967704;28;20050;-64
2023/05/29 06:03:23;;;;;;;21.35;3.85;;;11.30;78.70;;;;;;4974249;28;20061;-64
2023/05/29 06:05:50;;;;;;;34.83;5.13;;;11.30;74.20;;;;;;4959218;28;20046;-65
2023/05/29 06:08:18;;;;;;;;;;;11.40;73.10;;;;;;4983687;28;20053;-64
2023/05/29 06:10:44;;;;;;;23.60;4.53;;;11.30;76.10;;;;;;4966541;28;19925;-64
2023/05/29 06:13:11;;;;;;;18.88;3.30;;;11.30;74.30;;;;;;4968055;28;20047;-65
2023/05/29 06:15:37;;;;;;;18.00;3.47;;;11.30;71.90;;;;;;4966600;28;20416;-63
2023/05/29 06:18:05;;;;;;;15.70;3.28;;;11.30;79.00;;;;;;4968661;28;20078;-63
2023/05/29 06:20:31;;;;;;;20.63;3.90;;;11.40;79.60;;;;;;4997986;28;20090;-63
2023/05/29 06:22:57;;;;;;;24.92;4.28;;;11.30;72.80;;;;;;4949623;28;20046;-64
2023/05/29 06:25:30;;;;;;;20.20;4.32;;;11.40;66.70;;;;;;4994551;28;20102;-64
2023/05/29 06:27:55;;;;;;;19.23;3.90;;;11.50;75.10;;;;;;4969515;28;20046;-64
2023/05/29 06:30:21;;;;;;;19.30;4.07;;;11.60;70.60;;;;;;4996235;28;20038;-64
2023/05/29 06:32:47;;;;;;;31.65;4.75;;;11.60;69.00;;;;;;4975249;28;20057;-64
2023/05/29 06:35:13;;;;;;;22.05;4.47;;;11.60;68.70;;;;;;4976876;28;20070;-64
2023/05/29 06:37:39;;;;;;;18.15;3.65;;;11.50;67.30;;;;;;4997640;28;20082;-64
2023/05/29 06:40:05;;;;;;;25.65;3.33;;;11.40;67.00;;;;;;4969714;28;20452;-64
2023/05/29 06:42:31;;;;;;;25.15;3.75;;;11.30;69.20;;;;;;4984576;28;20077;-65
2023/05/29 06:44:57;;;;;;;31.88;4.88;;;11.40;64.60;;;;;;4983983;28;20053;-64
2023/05/29 06:47:23;;;;;;;28.00;3.95;;;11.40;69.30;;;;;;4977391;28;20051;-64
2023/05/29 06:49:49;;;;;;;20.85;3.88;;;11.40;63.20;;;;;;4968499;28;20403;-64
2023/05/29 06:52:14;;;;;;;23.77;3.97;;;11.40;67.00;;;;;;4973607;28;20106;-64
2023/05/29 06:54:41;;;;;;;23.05;4.05;;;11.40;69.60;;;;;;4972597;28;20109;-64
2023/05/29 06:57:07;;;;;;;20.73;3.85;;;11.50;66.50;;;;;;4973247;28;20046;-64
2023/05/29 06:59:33;;;;;;;21.83;3.72;;;11.60;72.20;;;;;;4974084;28;20077;-64
2023/05/29 07:01:59;;;;;;;23.63;3.28;;;11.70;71.90;;;;;;4967268;28;20047;-64
2023/05/29 07:04:25;;;;;;;31.17;4.43;;;11.70;66.90;;;;;;4968571;28;20038;-65
2023/05/29 07:06:51;;;;;;;26.98;4.20;;;11.80;64.60;;;;;;4974287;28;20093;-64
2023/05/29 07:09:18;;;;;;;21.75;4.30;;;11.80;67.90;;;;;;4966989;28;20364;-64
2023/05/29 07:11:44;;;;;;;26.65;3.95;;;11.90;69.80;;;;;;4966100;28;20081;-64
2023/05/29 07:14:10;;;;;;;32.33;4.10;;;12.10;75.80;;;;;;4971920;28;20083;-65
2023/05/29 07:16:36;;;;;;;16.58;3.90;;;12.10;55.60;;;;;;4976826;28;20039;-65
2023/05/29 07:19:01;;;;;;;29.85;4.05;;;12.00;58.60;;;;;;4970069;28;20625;-65
2023/05/29 07:21:27;;;;;;;26.55;3.75;;;12.00;62.90;;;;;;4978960;28;20050;-65
2023/05/29 07:23:53;;;;;;;18.20;3.60;;;12.00;58.40;;;;;;4972203;28;20154;-64
2023/05/29 07:26:20;;;;;;;20.90;4.30;;;11.90;56.90;;;;;;4970884;28;20041;-65
2023/05/29 07:28:46;;;;;;;20.80;3.50;;;11.90;61.50;;;;;;4976585;28;20055;-64
2023/05/29 07:31:12;;;;;;;15.40;3.42;;;12.20;74.20;;;;;;4996085;28;20401;-65
2023/05/29 07:33:40;;;;;;;23.98;4.63;;;12.30;68.10;;;;;;4972648;28;20085;-66
2023/05/29 07:36:07;;;;;;;23.58;4.45;;;12.50;59.40;;;;;;4973981;28;20089;-64
2023/05/29 07:38:33;;;;;;;25.90;4.35;;;12.70;52.10;;;;;;4972129;28;20117;-65
2023/05/29 07:40:59;;;;;;;20.95;4.07;;;12.70;53.80;;;;;;4977982;28;20485;-65
2023/05/29 07:43:25;;;;;;;21.13;4.07;;;13.00;59.70;;;;;;4979744;28;20108;-64
2023/05/29 07:45:51;;;;;;;29.85;3.83;;;13.00;52.20;;;;;;4977138;28;20051;-65
2023/05/29 07:48:17;;;;;;;22.48;3.63;;;13.10;54.60;;;;;;4978600;28;20417;-65
2023/05/29 07:50:43;;;;;;;24.90;4.70;;;13.30;36.80;;;;;;4984200;28;20042;-65
2023/05/29 07:53:09;;;;;;;33.70;4.10;;;13.40;30.70;;;;;;4979586;28;20448;-65
2023/05/29 07:55:35;;;;;;;31.48;4.85;;;13.40;28.30;;;;;;4983419;28;20058;-64
2023/05/29 07:58:01;;;;;;;26.77;5.63;;;13.50;42.10;;;;;;4979788;28;20046;-65
2023/05/29 08:00:28;;;;;;;15.75;3.33;;;13.50;38.20;;;;;;4973373;28;20042;-64
2023/05/29 08:02:57;;;;;;;26.40;3.90;;;13.40;25.90;;;;;;4973225;28;20173;-64
2023/05/29 08:05:22;;;;;;;25.45;4.57;;;13.20;30.90;;;;;;4977283;28;20051;-65
2023/05/29 08:07:48;;;;;;;21.60;4.82;;;13.20;30.20;;;;;;4983074;28;20112;-65
2023/05/29 08:10:15;;;;;;;25.73;4.25;;;13.30;32.10;;;;;;4975101;28;20457;-66
2023/05/29 08:12:40;;;;;;;19.08;4.10;;;13.30;32.60;;;;;;4968391;28;20057;-65
2023/05/29 08:15:07;;;;;;;16.92;3.53;;;13.50;42.50;;;;;;4969186;28;20051;-64
2023/05/29 08:17:33;;;;;;;16.88;3.97;;;13.70;36.60;;;;;;4969197;28;20106;-65
2023/05/29 08:19:59;;;;;;;19.50;3.88;;;13.80;28.70;;;;;;4968776;28;20122;-64
2023/05/29 08:22:33;;;;;;;19.27;3.45;;;13.90;29.10;;;;;;4970710;28;20374;-64
2023/05/29 08:25:00;;;;;;;27.75;5.75;;;14.00;31.90;;;;;;4969346;28;20600;-64
2023/05/29 08:27:25;;;;;;;25.25;4.35;;;13.90;26.40;;;;;;4968188;28;20082;-65
2023/05/29 08:29:51;;;;;;;20.08;3.60;;;13.80;29.80;;;;;;4968534;28;20077;-65
2023/05/29 08:32:17;;;;;;;23.42;3.97;;;13.70;27.90;;;;;;4971168;28;20761;-65
2023/05/29 08:34:45;;;;;;;28.80;4.35;;;13.70;34.40;;;;;;4970398;28;20053;-65
2023/05/29 08:37:11;;;;;;;20.10;4.00;;;13.50;31.50;;;;;;4976884;28;20063;-63
2023/05/29 08:39:37;;;;;;;16.52;3.72;;;13.60;31.50;;;;;;4969133;28;20054;-65
2023/05/29 08:42:12;;;;;;;15.95;3.38;;;13.60;32.20;;;;;;4968434;28;20047;-65
2023/05/29 08:44:40;;;;;;;21.58;4.20;;;13.60;30.50;;;;;;4970036;28;20122;-64
2023/05/29 08:47:07;;;;;;;17.55;3.75;;;13.70;34.50;;;;;;4968257;28;20062;-64
2023/05/29 08:49:45;;;;;;;13.20;3.17;;;13.70;25.80;;;;;;4967897;28;20178;-64
2023/05/29 08:52:20;;;;;;;34.08;4.80;;;13.50;27.80;;;;;;4966875;28;20055;-64
2023/05/29 08:54:46;;;;;;;22.25;4.93;;;13.60;31.40;;;;;;4963839;28;20093;-64
2023/05/29 08:57:12;;;;;;;21.30;3.75;;;13.70;38.20;;;;;;4967555;28;20054;-64
2023/05/29 08:59:42;;;;;;;20.50;4.22;;;13.80;26.00;;;;;;4968573;28;20058;-65
2023/05/29 09:02:08;;;;;;;27.45;3.78;;;13.70;20.60;;;;;;4966592;28;20054;-65
2023/05/29 09:04:33;;;;;;;18.02;3.83;;;13.70;22.00;;;;;;4968453;28;20055;-64
2023/05/29 09:06:59;;;;;;;24.10;4.20;;;13.80;22.10;;;;;;4966778;28;20054;-65
2023/05/29 09:09:31;;;;;;;20.35;4.53;;;13.90;19.30;;;;;;4968620;28;20055;-65
2023/05/29 09:11:58;;;;;;;23.40;4.47;;;13.90;25.30;;;;;;4968203;28;20046;-65
2023/05/29 09:14:38;;;;;;;23.00;4.00;;;14.20;27.60;;;;;;4988784;28;20105;-65
2023/05/29 09:17:06;;;;;;;22.90;4.35;;;14.30;17.10;;;;;;4969164;28;20055;-65
2023/05/29 09:19:32;;;;;;;25.77;4.28;;;14.10;17.20;;;;;;4970672;28;20047;-65
2023/05/29 09:22:09;;;;;;;20.08;4.03;;;13.90;18.60;;;;;;4973749;28;20055;-65
2023/05/29 09:24:37;;;;;;;15.63;3.15;;;13.80;19.20;;;;;;4977125;28;20046;-66
2023/05/29 09:27:07;;;;;;;24.80;4.45;;;13.80;16.40;;;;;;4978237;28;20125;-64
2023/05/29 09:29:38;;;;;;;20.25;3.72;;;13.90;19.50;;;;;;4968107;28;20098;-64
2023/05/29 09:32:11;;;;;;;22.75;4.55;;;14.10;21.10;;;;;;4966405;28;20039;-65
2023/05/29 09:34:38;;;;;;;23.85;4.32;;;14.10;18.70;;;;;;4971560;28;20039;-65
2023/05/29 09:37:08;;;;;;;19.08;3.85;;;14.20;19.00;;;;;;4973005;28;20038;-65
2023/05/29 09:39:48;;;;;;;23.90;3.83;;;14.40;18.50;;;;;;4995972;28;20042;-65
2023/05/29 09:42:14;;;;;;;21.45;3.35;;;14.40;19.30;;;;;;4966576;28;20046;-66
2023/05/29 09:44:41;;;;;;;16.35;3.70;;;14.50;15.20;;;;;;4982925;28;20089;-65
2023/05/29 09:47:07;;;;;;;29.25;5.18;;;14.50;17.50;;;;;;4984789;28;20489;-65
2023/05/29 09:49:33;;;;;;;24.17;4.05;;;14.60;19.00;;;;;;4985321;28;20048;-65
2023/05/29 09:52:00;;;;;;;20.90;3.63;;;14.60;11.20;;;;;;4982256;28;20085;-64
2023/05/29 09:54:32;;;;;;;22.10;4.10;;;14.30;13.40;;;;;;4983902;28;20121;-64
2023/05/29 09:57:00;;;;;;;15.73;4.03;;;14.30;20.50;;;;;;4982305;28;20050;-65
2023/05/29 09:59:29;;;;;;;23.70;4.32;;;14.40;14.40;;;;;;4982903;28;20050;-65
2023/05/29 10:02:03;;;;;;;18.02;3.67;;;14.30;8.60;;;;;;4972101;28;20097;-65
2023/05/29 10:04:36;;;;;;;19.00;4.13;;;14.10;18.00;;;;;;4967482;28;20461;-65
2023/05/29 10:07:09;;;;;;;16.40;3.95;;;14.10;16.40;;;;;;4967641;28;20035;-65
2023/05/29 10:09:43;;;;;;;19.63;4.03;;;14.10;10.40;;;;;;4985935;28;20068;-65
2023/05/29 10:12:13;;;;;;;15.00;3.35;;;14.10;20.00;;;;;;4983351;28;20039;-65
2023/05/29 10:14:41;;;;;;;16.88;3.25;;;14.30;16.40;;;;;;4975320;28;20051;-65
2023/05/29 10:17:09;;;;;;;25.00;4.70;;;14.40;22.10;;;;;;4967798;28;20058;-65
2023/05/29 10:19:38;;;;;;;21.08;4.45;;;14.40;18.70;;;;;;4971593;28;20064;-66
2023/05/29 10:22:05;;;;;;;22.73;4.63;;;14.30;17.30;;;;;;4968424;28;20134;-64
2023/05/29 10:24:32;;;;;;;25.95;4.10;;;14.40;26.30;;;;;;4970614;28;20117;-65
2023/05/29 10:26:58;;;;;;;18.60;3.67;;;14.40;17.90;;;;;;4980070;28;20444;-65
2023/05/29 10:29:28;;;;;;;18.98;3.70;;;14.50;27.10;;;;;;4971296;28;20074;-65
2023/05/29 10:32:12;;;;;;;23.90;3.45;;;14.50;16.10;;;;;;4969077;28;20092;-65
2023/05/29 10:35:16;;;;;;;17.85;3.55;;;14.40;19.10;;;;;;4974144;28;20409;-65
2023/05/29 10:37:57;;;;;;;22.25;4.80;;;14.40;20.10;;;;;;4978314;28;20058;-65
2023/05/29 10:40:26;;;;;;;22.13;4.18;;;14.50;26.10;;;;;;4963873;28;20108;-65
2023/05/29 10:42:57;;;;;;;23.27;3.70;;;14.60;32.70;;;;;;4979057;28;20508;-65
2023/05/29 10:45:29;;;;;;;18.30;4.00;;;14.60;17.70;;;;;;4978323;28;20042;-66
2023/05/29 10:47:55;;;;;;;21.55;4.68;;;14.60;25.30;;;;;;4977915;28;20043;-65
2023/05/29 10:50:42;;;;;;;19.90;3.85;;;14.70;27.00;;;;;;4971354;28;20042;-65
2023/05/29 10:53:16;;;;;;;17.75;4.00;;;14.60;27.50;;;;;;4971793;28;20042;-65
2023/05/29 10:55:42;;;;;;;17.42;3.92;;;14.60;15.60;;;;;;4963943;28;20093;-65
2023/05/29 10:58:13;;;;;;;25.95;5.05;;;14.30;18.20;;;;;;4968050;28;20513;-65
2023/05/29 11:00:43;;;;;;;14.02;2.95;;;14.30;24.40;;;;;;4964551;28;20160;-66
2023/05/29 11:03:10;;;;;;;14.90;3.00;;;14.50;22.30;;;;;;4964422;28;20442;-67
2023/05/29 11:05:55;;;;;;;14.45;2.88;;;14.50;23.40;;;;;;4964212;28;20035;-66
2023/05/29 11:08:32;;;;;;;33.58;4.45;;;14.50;20.10;;;;;;4964179;28;20047;-65
2023/05/29 11:10:59;;;;;;;17.88;4.20;;;14.50;20.20;;;;;;4962311;28;20532;-65
2023/05/29 11:13:36;;;;;;;19.92;3.45;;;14.60;20.60;;;;;;4969346;28;20103;-65
2023/05/29 11:16:24;;;;;;;20.90;3.72;;;14.60;21.60;;;;;;4966738;28;20053;-65
2023/05/29 11:18:51;;;;;;;21.70;4.15;;;14.50;15.90;;;;;;4965681;28;20061;-66
2023/05/29 11:21:44;;;;;;;23.42;4.72;;;14.60;22.60;;;;;;4976079;28;20662;-65
2023/05/29 11:24:27;;;;;;;16.88;3.30;;;14.60;24.80;;;;;;4961894;28;20082;-66
2023/05/29 11:26:55;;;;;;;15.35;3.65;;;14.60;23.20;;;;;;4958804;28;20485;-65
2023/05/29 11:29:27;;;;;;;17.60;3.72;;;14.80;30.90;;;;;;4979745;28;20053;-66
2023/05/29 11:32:00;;;;;;;13.50;3.03;;;14.70;17.80;;;;;;4973113;28;20499;-65
2023/05/29 11:34:29;;;;;;;21.40;3.95;;;14.60;20.90;;;;;;4970475;28;20528;-65
2023/05/29 11:36:57;;;;;;;20.17;3.88;;;14.70;27.20;;;;;;4968126;28;20054;-65
2023/05/29 11:39:23;;;;;;;16.38;4.03;;;14.80;18.60;;;;;;4959115;28;20047;-65
2023/05/29 11:41:55;;;;;;;15.18;3.95;;;14.80;19.60;;;;;;4967954;28;20572;-66
2023/05/29 11:44:25;;;;;;;18.17;3.38;;;14.80;19.30;;;;;;4971786;28;20065;-66
2023/05/29 11:47:05;;;;;;;17.00;3.08;;;14.70;17.70;;;;;;4996366;28;20045;-66
2023/05/29 11:49:36;;;;;;;11.70;3.13;;;14.80;22.20;;;;;;4964704;28;20085;-65
2023/05/29 11:52:10;;;;;;;20.55;3.55;;;14.90;12.80;;;;;;4960063;28;20043;-65
2023/05/29 11:54:37;;;;;;;16.55;3.38;;;14.80;10.30;;;;;;4966980;28;20142;-65
2023/05/29 11:57:05;;;;;;;18.20;3.78;;;14.80;20.70;;;;;;4981382;28;20054;-65
2023/05/29 11:59:32;;;;;;;19.58;4.18;;;14.70;20.00;;;;;;4974408;28;20035;-65
2023/05/29 12:02:01;;;;;;;15.75;3.38;;;14.80;17.30;;;;;;4968951;28;20049;-66
2023/05/29 12:04:27;;;;;;;12.38;2.90;;;14.80;19.20;;;;;;4969342;28;20180;-65
2023/05/29 12:06:53;;;;;;;13.55;3.17;;;14.80;23.50;;;;;;4972603;28;20528;-65
2023/05/29 12:09:26;;;;;;;12.07;2.95;;;14.90;18.80;;;;;;4974418;28;20041;-65
2023/05/29 12:11:52;;;;;;;15.73;3.33;;;14.80;15.40;;;;;;4962359;28;20045;-65
2023/05/29 12:14:18;;;;;;;16.20;3.90;;;14.80;11.90;;;;;;4970420;28;20050;-66
2023/05/29 12:16:44;;;;;;;24.48;4.82;;;15.00;13.00;;;;;;4979271;28;20129;-65
2023/05/29 12:19:09;;;;;;;15.55;2.97;;;15.00;18.70;;;;;;4982066;28;20058;-65
2023/05/29 12:21:36;;;;;;;15.95;3.40;;;15.10;15.90;;;;;;4969499;28;20173;-65
2023/05/29 12:24:04;;;;;;;16.10;3.78;;;15.20;14.20;;;;;;4973475;28;20609;-66
2023/05/29 12:26:30;;;;;;;19.33;3.60;;;15.10;14.50;;;;;;4972099;28;20054;-65
2023/05/29 12:28:57;;;;;;;12.95;2.97;;;15.10;14.30;;;;;;4970995;28;20043;-65
2023/05/29 12:31:31;;;;;;;18.30;3.58;;;15.00;22.50;;;;;;4967036;28;20054;-65
2023/05/29 12:34:12;;;;;;;14.40;2.92;;;15.10;17.20;;;;;;4970585;28;20050;-66
2023/05/29 12:36:42;;;;;;;15.25;3.15;;;15.20;14.30;;;;;;4966912;28;20057;-65
2023/05/29 12:39:09;;;;;;;13.55;2.90;;;15.20;17.80;;;;;;4976939;28;20177;-65
2023/05/29 12:41:36;;;;;;;20.00;3.22;;;15.10;8.10;;;;;;4968939;28;20515;-65
2023/05/29 12:44:05;;;;;;;21.60;3.38;;;14.90;20.20;;;;;;4980423;28;20030;-65